Terminal Aerodrome Forecast
Issued by NWS

Home | Current Version | Previous Version | Graphics & Text | Print | Product List | Glossary On
Versions: 1 2 3 4 5 6 7 8 9 10 11 12 13 14 15 16 17 18
057
FTUS43 KBIS 090525
TAFJMS
TAF
KJMS 090525Z 0906/1006 34008KT P6SM SCT008
     FM091200 34008KT P6SM BKN050
     FM100100 01007KT P6SM BKN050
     FM100400 04006KT P6SM BKN050=

USA.gov is the U.S. government's official web portal to all federal, state and local government web resources and services.